createdAt,value
2022-10-15T00:00:07.753Z,-16123.13
2022-10-15T00:01:11.387Z,-15798.63
2022-10-15T00:02:13.600Z,-15145.25
2022-10-15T00:03:16.907Z,-14494.84
2022-10-15T00:04:19.141Z,-14820.13
2022-10-15T00:05:22.138Z,-14497.00
2022-10-15T00:06:24.487Z,-13845.13
2022-10-15T00:07:28.532Z,-13847.59
2022-10-15T00:08:30.732Z,-14168.22
2022-10-15T00:09:32.850Z,-13519.00
2022-10-15T00:10:35.704Z,-12545.88
2022-10-15T00:11:39.787Z,-11893.25
2022-10-15T00:12:42.641Z,-12868.59
2022-10-15T00:13:45.199Z,-12541.59
2022-10-15T00:14:47.314Z,-12216.78
2022-10-15T00:15:49.450Z,-12541.38
2022-10-15T00:16:51.597Z,-12216.53
2022-10-15T00:17:53.813Z,-12540.91
2022-10-15T00:18:58.431Z,-12869.19
2022-10-15T00:20:01.529Z,-12869.56
2022-10-15T00:21:07.658Z,-13199.09
2022-10-15T00:22:09.798Z,-12216.19
2022-10-15T00:23:11.934Z,-12541.38
2022-10-15T00:24:14.071Z,-12541.38
2022-10-15T00:25:16.395Z,-12540.19
2022-10-15T00:26:21.729Z,-13845.91
2022-10-15T00:27:23.883Z,-12538.75
2022-10-15T00:28:28.496Z,-13513.53
2022-10-15T00:29:32.966Z,-13514.81
2022-10-15T00:30:35.071Z,-14163.75
2022-10-15T00:31:37.316Z,-13839.69
2022-10-15T00:32:41.004Z,-13839.94
2022-10-15T00:33:44.069Z,-13517.22
2022-10-15T00:34:47.324Z,-13190.38
2022-10-15T00:36:08.298Z,-14173.78
2022-10-15T00:37:10.592Z,-12541.13
2022-10-15T00:38:13.155Z,-12865.31
2022-10-15T00:39:15.593Z,-13184.69
2022-10-15T00:40:19.886Z,-15138.69
2022-10-15T00:41:30.438Z,-16119.28
2022-10-15T00:42:32.564Z,-15463.53
2022-10-15T00:43:48.352Z,-17421.78
2022-10-15T00:44:52.874Z,-15786.13
2022-10-15T00:45:55.053Z,-15140.94
2022-10-15T00:47:06.868Z,-15794.56
2022-10-15T00:48:10.485Z,-15463.38
2022-10-15T00:49:33.530Z,-16771.69
2022-10-15T00:50:35.648Z,-15462.38
2022-10-15T00:51:42.856Z,-16119.56
2022-10-15T00:52:57.599Z,-16109.81
2022-10-15T00:54:00.533Z,-17082.34
2022-10-15T00:55:10.988Z,-19360.63
2022-10-15T00:56:15.265Z,-18705.09
2022-10-15T00:57:18.005Z,-18055.41
2022-10-15T00:58:28.215Z,-18061.47
2022-10-15T00:59:32.618Z,-16440.97
2022-10-15T01:00:35.183Z,-15135.75
2022-10-15T01:01:37.526Z,-14810.81
2022-10-15T01:02:40.051Z,-15137.44
2022-10-15T01:03:43.081Z,-14811.34
2022-10-15T01:04:46.384Z,-16110.69
2022-10-15T01:05:51.303Z,-17082.34
2022-10-15T01:06:53.863Z,-17402.59
2022-10-15T01:07:56.051Z,-17731.25
2022-10-15T01:08:59.892Z,-17405.47
2022-10-15T01:10:05.174Z,-17089.66
2022-10-15T01:11:25.507Z,-16120.75
2022-10-15T01:12:46.368Z,-16772.00
2022-10-15T01:14:17.291Z,-15792.09
2022-10-15T01:15:26.340Z,-16767.41
2022-10-15T01:16:49.717Z,-16767.72
2022-10-15T01:18:08.171Z,-17741.72
2022-10-15T01:19:25.765Z,-17421.63
2022-10-15T01:21:03.152Z,-16771.53
2022-10-15T01:22:16.635Z,-16442.16
2022-10-15T01:23:29.388Z,-16122.97
2022-10-15T01:24:43.513Z,-16770.47
2022-10-15T01:25:45.635Z,-16758.06
2022-10-15T01:27:08.980Z,-18394.78
2022-10-15T01:28:32.573Z,-16773.81
2022-10-15T01:29:52.405Z,-16110.56
2022-10-15T01:31:11.244Z,-16442.31
2022-10-15T01:32:27.269Z,-16447.44
2022-10-15T01:33:36.855Z,-17091.22
2022-10-15T01:34:43.481Z,-16435.25
2022-10-15T01:35:48.514Z,-16101.41
2022-10-15T01:36:55.940Z,-20004.06
2022-10-15T01:38:09.780Z,-20664.59
2022-10-15T01:39:23.271Z,-18722.16
2022-10-15T01:40:37.808Z,-17096.66
2022-10-15T01:41:54.353Z,-15135.47
2022-10-15T01:43:00.821Z,-17083.59
2022-10-15T01:44:15.740Z,-18701.22
2022-10-15T01:45:46.487Z,-18715.91
2022-10-15T01:47:06.806Z,-18387.31
2022-10-15T01:48:12.975Z,-18714.56
2022-10-15T01:49:21.355Z,-17742.03
2022-10-15T01:50:27.479Z,-16443.97
2022-10-15T01:51:31.820Z,-16117.50
2022-10-15T01:52:38.785Z,-16446.69
2022-10-15T01:53:42.606Z,-16432.84
2022-10-15T01:54:47.980Z,-18393.97
2022-10-15T01:55:50.693Z,-17087.94
2022-10-15T01:56:54.676Z,-17095.09
2022-10-15T01:58:00.301Z,-16113.06
2022-10-15T01:59:03.483Z,-17409.09
2022-10-15T02:00:06.533Z,-17735.59
2022-10-15T02:01:16.070Z,-17742.34
2022-10-15T02:02:18.377Z,-16766.78
2022-10-15T02:03:20.722Z,-16118.41
2022-10-15T02:04:28.354Z,-15144.69
2022-10-15T02:05:38.388Z,-15797.16
2022-10-15T02:06:44.402Z,-16121.06
2022-10-15T02:08:00.176Z,-17419.72
2022-10-15T02:09:11.130Z,-17741.22
2022-10-15T02:10:17.969Z,-16760.66
2022-10-15T02:11:21.898Z,-18698.69
2022-10-15T02:12:55.396Z,-20661.84
2022-10-15T02:14:35.013Z,-19359.75
2022-10-15T02:15:45.758Z,-20342.72
2022-10-15T02:16:55.774Z,-18717.25
2022-10-15T02:18:10.551Z,-17420.34
2022-10-15T02:19:18.827Z,-18711.00
2022-10-15T02:20:28.557Z,-18062.28
2022-10-15T02:21:48.495Z,-19041.16
2022-10-15T02:23:27.285Z,-20015.56
2022-10-15T02:25:00.302Z,-20000.31
2022-10-15T02:26:07.252Z,-20661.91
2022-10-15T02:27:12.130Z,-20655.81
2022-10-15T02:28:17.091Z,-20332.19
2022-10-15T02:29:23.295Z,-20328.91
2022-10-15T02:30:27.781Z,-20656.72
2022-10-15T02:31:32.643Z,-18700.69
2022-10-15T02:32:38.675Z,-20330.72
2022-10-15T02:33:41.917Z,-19345.31
2022-10-15T02:34:46.934Z,-20642.88
2022-10-15T02:35:51.295Z,-20652.47
2022-10-15T02:36:54.635Z,-20657.09
2022-10-15T02:38:00.559Z,-20338.38
2022-10-15T02:39:05.295Z,-19041.31
2022-10-15T02:40:08.130Z,-17092.94
2022-10-15T02:41:10.300Z,-16112.47
2022-10-15T02:42:13.999Z,-15791.06
2022-10-15T02:43:20.108Z,-16774.13
2022-10-15T02:44:22.371Z,-15464.09
2022-10-15T02:45:24.559Z,-15467.22
2022-10-15T02:46:26.772Z,-14813.81
2022-10-15T02:47:28.965Z,-15141.63
2022-10-15T02:48:31.229Z,-14814.09
2022-10-15T02:49:33.402Z,-15784.38
2022-10-15T02:50:35.615Z,-16434.78
2022-10-15T02:51:38.221Z,-17410.22
2022-10-15T02:52:40.337Z,-16765.25
2022-10-15T02:53:42.473Z,-15789.31
2022-10-15T02:54:44.596Z,-16112.78
2022-10-15T02:55:47.104Z,-17409.88
2022-10-15T02:56:49.462Z,-17412.75
2022-10-15T02:57:54.040Z,-16437.97
2022-10-15T02:58:56.968Z,-16435.25
2022-10-15T02:59:59.093Z,-16114.25
2022-10-15T03:01:02.350Z,-15468.38
2022-10-15T03:02:04.678Z,-13843.84
2022-10-15T03:03:07.404Z,-13193.00
2022-10-15T03:04:09.950Z,-13516.84
2022-10-15T03:05:12.693Z,-13517.59
2022-10-15T03:06:15.463Z,-13843.97
2022-10-15T03:07:17.639Z,-12870.03
2022-10-15T03:08:19.777Z,-12541.84
2022-10-15T03:09:22.137Z,-13513.41
2022-10-15T03:10:24.348Z,-14815.75
2022-10-15T03:11:26.488Z,-14163.22
2022-10-15T03:12:28.631Z,-14163.75
2022-10-15T03:13:31.086Z,-13837.09
2022-10-15T03:14:33.226Z,-14814.09
2022-10-15T03:15:37.150Z,-15141.78
2022-10-15T03:16:39.337Z,-14486.91
2022-10-15T03:17:41.461Z,-14809.44
2022-10-15T03:18:43.846Z,-15140.50
2022-10-15T03:19:46.557Z,-14163.34
2022-10-15T03:20:56.213Z,-14827.28
2022-10-15T03:21:58.423Z,-13831.41
2022-10-15T03:23:02.925Z,-15461.22
2022-10-15T03:24:07.584Z,-15787.00
2022-10-15T03:25:09.690Z,-15458.53
2022-10-15T03:26:13.078Z,-15137.00
2022-10-15T03:27:15.387Z,-15461.81
2022-10-15T03:28:17.704Z,-14814.38
2022-10-15T03:29:19.889Z,-13835.03
2022-10-15T03:30:29.578Z,-14813.00
2022-10-15T03:31:31.944Z,-13840.84
2022-10-15T03:32:36.967Z,-13189.66
2022-10-15T03:33:40.828Z,-12862.03
2022-10-15T03:34:43.058Z,-13511.78
2022-10-15T03:35:48.466Z,-12861.28
2022-10-15T03:36:51.205Z,-13187.41
2022-10-15T03:37:53.387Z,-13187.03
2022-10-15T03:38:55.681Z,-12212.59
2022-10-15T03:39:58.481Z,-12201.88
2022-10-15T03:41:03.053Z,-14807.50
2022-10-15T03:42:09.938Z,-14803.38
2022-10-15T03:43:19.992Z,-15781.34
2022-10-15T03:44:22.153Z,-14807.50
2022-10-15T03:45:34.697Z,-14155.81
2022-10-15T03:46:50.299Z,-14806.41
2022-10-15T03:47:54.330Z,-15119.78
2022-10-15T03:48:56.817Z,-16428.91
2022-10-15T03:49:58.967Z,-16105.53
2022-10-15T03:51:01.309Z,-15131.81
2022-10-15T03:52:03.677Z,-15122.31
2022-10-15T03:53:06.499Z,-15782.66
2022-10-15T03:54:09.478Z,-14484.75
2022-10-15T03:55:19.317Z,-12859.22
2022-10-15T03:56:21.666Z,-13178.22
2022-10-15T03:57:24.322Z,-14485.44
2022-10-15T03:58:31.283Z,-12857.03
2022-10-15T03:59:36.436Z,-13182.94
2022-10-15T04:00:44.012Z,-15133.78
2022-10-15T04:01:46.348Z,-15128.19
2022-10-15T04:02:48.495Z,-14482.72
2022-10-15T04:04:00.256Z,-13830.63
2022-10-15T04:05:02.506Z,-14480.72
2022-10-15T04:06:05.052Z,-14154.75
2022-10-15T04:07:07.373Z,-14799.28
2022-10-15T04:08:10.014Z,-15454.97
2022-10-15T04:09:15.577Z,-14157.41
2022-10-15T04:10:17.742Z,-13183.19
2022-10-15T04:11:20.745Z,-13505.44
2022-10-15T04:12:31.260Z,-12853.38
2022-10-15T04:13:33.509Z,-13181.06
2022-10-15T04:14:36.622Z,-12534.84
2022-10-15T04:15:39.960Z,-12854.25
2022-10-15T04:16:45.304Z,-12529.47
2022-10-15T04:17:56.078Z,-13512.78
2022-10-15T04:19:00.417Z,-12856.56
2022-10-15T04:20:02.882Z,-13504.03
2022-10-15T04:21:05.152Z,-12857.53
2022-10-15T04:22:08.606Z,-11879.38
2022-10-15T04:23:18.226Z,-12858.84
2022-10-15T04:24:40.278Z,-10902.88
2022-10-15T04:25:42.789Z,-12205.84
2022-10-15T04:26:45.299Z,-10908.59
2022-10-15T04:27:47.536Z,-10258.28
2022-10-15T04:28:53.040Z,-9281.97
2022-10-15T04:29:57.085Z,-9282.34
2022-10-15T04:31:00.877Z,-8632.84
2022-10-15T04:32:03.404Z,-9277.91
2022-10-15T04:33:05.667Z,-10576.69
2022-10-15T04:34:08.717Z,-11551.41
2022-10-15T04:35:11.302Z,-12851.44
2022-10-15T04:36:31.808Z,-13172.50
2022-10-15T04:37:48.677Z,-15766.53
2022-10-15T04:38:52.201Z,-16418.09
2022-10-15T04:40:18.681Z,-17066.16
2022-10-15T04:41:21.536Z,-15448.69
2022-10-15T04:42:37.066Z,-13826.34
2022-10-15T04:43:40.610Z,-12200.72
2022-10-15T04:44:44.448Z,-13821.44
2022-10-15T04:45:47.573Z,-14795.56
2022-10-15T04:46:53.989Z,-15770.59
2022-10-15T04:48:09.822Z,-15768.84
2022-10-15T04:49:11.999Z,-14800.09
2022-10-15T04:50:16.341Z,-14150.53
2022-10-15T04:51:51.634Z,-13498.06
2022-10-15T04:53:02.843Z,-13176.59
2022-10-15T04:54:08.962Z,-12203.41
2022-10-15T04:55:19.197Z,-12525.91
2022-10-15T04:56:22.102Z,-13503.28
2022-10-15T04:57:24.399Z,-12852.66
2022-10-15T04:58:26.762Z,-11554.06
2022-10-15T04:59:28.963Z,-11879.38
2022-10-15T05:00:49.855Z,-11551.19
2022-10-15T05:02:03.712Z,-11551.31
2022-10-15T05:03:06.720Z,-11881.22
2022-10-15T05:04:17.690Z,-10581.53
2022-10-15T05:05:19.859Z,-9927.66
2022-10-15T05:06:33.688Z,-8956.19
2022-10-15T05:07:48.439Z,-8623.78
2022-10-15T05:08:51.571Z,-10247.25
2022-10-15T05:10:00.933Z,-11546.75
2022-10-15T05:11:06.351Z,-12853.50
2022-10-15T05:12:08.783Z,-11550.19
2022-10-15T05:13:10.951Z,-11876.19
2022-10-15T05:14:14.046Z,-11226.78
2022-10-15T05:15:16.263Z,-9923.56
2022-10-15T05:16:24.529Z,-12206.19
2022-10-15T05:17:26.848Z,-10252.56
2022-10-15T05:18:30.318Z,-9923.75
2022-10-15T05:19:32.589Z,-9924.63
2022-10-15T05:20:35.344Z,-8950.97
2022-10-15T05:21:38.520Z,-8626.22
2022-10-15T05:22:47.886Z,-8300.19
2022-10-15T05:23:50.850Z,-7974.13
2022-10-15T05:25:04.993Z,-8300.38
2022-10-15T05:26:12.507Z,-9930.09
2022-10-15T05:27:14.754Z,-8626.13
2022-10-15T05:28:17.771Z,-10247.25
2022-10-15T05:29:20.025Z,-10898.13
2022-10-15T05:30:22.289Z,-11548.53
2022-10-15T05:31:29.731Z,-11877.34
2022-10-15T05:32:39.592Z,-10899.81
2022-10-15T05:33:51.119Z,-11230.81
2022-10-15T05:34:57.377Z,-10570.94
2022-10-15T05:36:12.912Z,-11879.16
2022-10-15T05:37:15.078Z,-10249.66
2022-10-15T05:38:18.020Z,-8949.53
2022-10-15T05:39:20.303Z,-8620.88
2022-10-15T05:40:22.419Z,-10572.78
2022-10-15T05:41:38.488Z,-8949.00
2022-10-15T05:42:40.716Z,-6998.38
2022-10-15T05:43:43.119Z,-7648.38
2022-10-15T05:44:57.449Z,-7647.28
2022-10-15T05:45:59.682Z,-7973.38
2022-10-15T05:47:02.020Z,-7972.97
2022-10-15T05:48:04.606Z,-6347.63
2022-10-15T05:49:06.786Z,-6022.53
2022-10-15T05:50:20.647Z,-5370.19
2022-10-15T05:51:25.182Z,-6996.91
2022-10-15T05:52:30.487Z,-7970.94
2022-10-15T05:53:51.255Z,-7647.75
2022-10-15T05:54:53.472Z,-7323.56
2022-10-15T05:55:55.842Z,-7322.09
2022-10-15T05:57:01.683Z,-7648.31
2022-10-15T05:58:04.431Z,-6998.00
2022-10-15T05:59:06.557Z,-7323.50
2022-10-15T06:00:09.290Z,-7973.72
2022-10-15T06:01:14.031Z,-7322.03
2022-10-15T06:02:17.442Z,-7648.06
2022-10-15T06:03:19.708Z,-6997.19
2022-10-15T06:04:21.842Z,-7321.50
2022-10-15T06:05:24.754Z,-7973.22
2022-10-15T06:06:27.157Z,-8622.53
2022-10-15T06:07:29.307Z,-8621.50
2022-10-15T06:08:34.094Z,-8296.91
2022-10-15T06:09:36.284Z,-8296.91
2022-10-15T06:10:38.391Z,-8621.31
2022-10-15T06:11:40.767Z,-8946.84
2022-10-15T06:12:50.677Z,-9927.28
2022-10-15T06:13:53.185Z,-9271.88
2022-10-15T06:14:55.343Z,-9269.03
2022-10-15T06:15:57.503Z,-10245.72
2022-10-15T06:16:59.649Z,-9595.38
2022-10-15T06:18:01.754Z,-9920.41
2022-10-15T06:19:04.364Z,-10568.13
2022-10-15T06:20:06.892Z,-12519.25
2022-10-15T06:21:12.524Z,-12845.72
2022-10-15T06:22:14.759Z,-11546.88
2022-10-15T06:23:17.057Z,-11221.47
2022-10-15T06:24:19.204Z,-10897.28
2022-10-15T06:25:21.525Z,-10573.50
2022-10-15T06:26:23.662Z,-9922.56
2022-10-15T06:27:26.074Z,-10574.75
2022-10-15T06:28:28.487Z,-9600.25
2022-10-15T06:29:30.583Z,-9920.22
2022-10-15T06:30:33.479Z,-11542.41
2022-10-15T06:31:35.607Z,-13169.91
2022-10-15T06:32:37.791Z,-11548.31
2022-10-15T06:33:39.979Z,-11549.19
2022-10-15T06:34:42.091Z,-10573.50
2022-10-15T06:35:44.454Z,-9602.25
2022-10-15T06:36:46.539Z,-7651.00
2022-10-15T06:37:49.006Z,-8947.84
2022-10-15T06:38:51.446Z,-10249.66
2022-10-15T06:39:53.573Z,-9926.69
2022-10-15T06:40:55.799Z,-8954.13
2022-10-15T06:41:57.906Z,-8301.97
2022-10-15T06:43:12.637Z,-7328.56
2022-10-15T06:44:14.762Z,-6024.38
2022-10-15T06:45:19.446Z,-6024.25
2022-10-15T06:46:23.933Z,-4720.34
2022-10-15T06:47:26.345Z,-6675.94
2022-10-15T06:48:28.844Z,-6349.47
2022-10-15T06:49:30.976Z,-6351.19
2022-10-15T06:50:35.037Z,-6028.22
2022-10-15T06:51:37.683Z,-5699.78
2022-10-15T06:52:39.838Z,-5702.00
2022-10-15T06:53:43.803Z,-5375.06
2022-10-15T06:54:45.993Z,-5701.69
2022-10-15T06:55:49.254Z,-6677.09
2022-10-15T06:56:51.805Z,-7002.31
2022-10-15T06:57:53.966Z,-7652.34
2022-10-15T06:58:57.508Z,-7002.97
2022-10-15T06:59:59.692Z,-4397.72
2022-10-15T07:01:03.768Z,-5052.00
2022-10-15T07:02:06.318Z,-4075.69
2022-10-15T07:03:08.543Z,-3097.25
2022-10-15T07:04:10.666Z,-2771.50
2022-10-15T07:05:12.857Z,-1791.97
2022-10-15T07:06:14.965Z,-2770.19
2022-10-15T07:07:17.061Z,-2770.16
2022-10-15T07:08:19.549Z,-2771.81
2022-10-15T07:09:21.802Z,-2119.66
2022-10-15T07:10:25.763Z,-3426.25
2022-10-15T07:11:27.987Z,-2773.50
2022-10-15T07:12:30.157Z,-2775.56
2022-10-15T07:13:32.435Z,2778.22
2022-10-15T07:14:40.057Z,2124.31
2022-10-15T07:15:46.264Z,7033.03
2022-10-15T07:16:48.506Z,12933.50
2022-10-15T07:17:52.751Z,12937.53
2022-10-15T07:18:54.874Z,12608.41
2022-10-15T07:19:57.021Z,19171.94
2022-10-15T07:20:59.600Z,22784.56
2022-10-15T07:22:01.834Z,21468.59
2022-10-15T07:23:04.274Z,24095.75
2022-10-15T07:24:09.164Z,21468.91
2022-10-15T07:25:11.790Z,27395.81
2022-10-15T07:26:13.976Z,28712.91
2022-10-15T07:27:19.458Z,30366.13
2022-10-15T07:28:21.810Z,32332.56
2022-10-15T07:29:23.991Z,33344.19
2022-10-15T07:30:28.505Z,37966.78
2022-10-15T07:31:32.476Z,35990.47
2022-10-15T07:32:36.675Z,42621.72
2022-10-15T07:33:39.953Z,53563.06
2022-10-15T07:34:43.211Z,56560.66
2022-10-15T07:35:47.072Z,63191.03
2022-10-15T07:36:49.882Z,65856.34
2022-10-15T07:37:52.566Z,58854.44
2022-10-15T07:38:55.246Z,56210.38
2022-10-15T07:39:58.185Z,51518.91
2022-10-15T07:41:02.608Z,44929.69
2022-10-15T07:42:08.038Z,54211.63
2022-10-15T07:43:11.019Z,53908.50
2022-10-15T07:44:16.453Z,59587.81
2022-10-15T07:45:20.897Z,78251.25
2022-10-15T07:46:26.239Z,75599.03
2022-10-15T07:47:31.491Z,98748.81
2022-10-15T07:48:34.971Z,105505.22
2022-10-15T07:49:37.657Z,124373.00
2022-10-15T07:50:42.425Z,126442.69
2022-10-15T07:51:45.125Z,133516.19
2022-10-15T07:52:48.408Z,133221.44
2022-10-15T07:53:51.629Z,141025.03
2022-10-15T07:54:54.742Z,143241.75
2022-10-15T07:56:07.088Z,132551.94
2022-10-15T07:57:09.473Z,118916.06
2022-10-15T07:58:12.237Z,123711.63
2022-10-15T07:59:18.066Z,121579.72
2022-10-15T08:00:22.064Z,107800.75
2022-10-15T08:01:26.012Z,108518.81
2022-10-15T08:02:31.593Z,126106.25
2022-10-15T08:03:35.252Z,135306.69
2022-10-15T08:04:45.237Z,149918.75
2022-10-15T08:05:48.430Z,149935.81
2022-10-15T08:06:51.746Z,149958.97
2022-10-15T08:07:55.632Z,149859.13
2022-10-15T08:08:59.091Z,149927.31
2022-10-15T08:10:06.196Z,149864.00
2022-10-15T08:11:16.571Z,149949.22
2022-10-15T08:12:20.010Z,149960.72
2022-10-15T08:13:25.028Z,150010.16
2022-10-15T08:14:30.873Z,150093.00
2022-10-15T08:15:33.685Z,150061.34
2022-10-15T08:16:37.554Z,150139.28
2022-10-15T08:17:40.967Z,150103.94
2022-10-15T08:18:47.152Z,150022.38
2022-10-15T08:19:52.355Z,150036.97
2022-10-15T08:20:54.750Z,150091.78
2022-10-15T08:21:58.825Z,150119.81
2022-10-15T08:23:01.905Z,150153.94
2022-10-15T08:24:06.135Z,150150.22
2022-10-15T08:25:09.888Z,150119.81
2022-10-15T08:26:12.842Z,150119.81
2022-10-15T08:27:16.017Z,150114.91
2022-10-15T08:28:19.198Z,149971.13
2022-10-15T08:29:21.974Z,150007.72
2022-10-15T08:30:25.575Z,150001.63
2022-10-15T08:31:28.824Z,150019.88
2022-10-15T08:32:31.199Z,149969.94
2022-10-15T08:33:35.651Z,150051.56
2022-10-15T08:34:38.330Z,149998.00
2022-10-15T08:35:44.252Z,150039.38
2022-10-15T08:36:47.099Z,149998.00
2022-10-15T08:37:51.521Z,150050.34
2022-10-15T08:38:54.957Z,150080.78
2022-10-15T08:39:59.787Z,150032.09
2022-10-15T08:41:06.177Z,150039.38
2022-10-15T08:42:20.336Z,150095.44
2022-10-15T08:43:36.487Z,150127.13
2022-10-15T08:44:46.311Z,150010.16
2022-10-15T08:45:53.928Z,150068.63
2022-10-15T08:47:24.288Z,150032.09
2022-10-15T08:48:33.778Z,150068.63
2022-10-15T08:49:37.905Z,150088.13
2022-10-15T08:51:09.475Z,150036.97
2022-10-15T08:52:41.352Z,150002.84
2022-10-15T08:53:46.761Z,150017.44
2022-10-15T08:54:50.730Z,149938.25
2022-10-15T08:55:57.621Z,149836.00
2022-10-15T08:57:18.911Z,149972.34
2022-10-15T08:58:30.309Z,149952.84
2022-10-15T08:59:42.124Z,149995.56
2022-10-15T09:01:13.966Z,150056.47
2022-10-15T09:02:24.681Z,150060.13
2022-10-15T09:03:41.554Z,150019.88
2022-10-15T09:05:13.548Z,150099.09
2022-10-15T09:06:25.335Z,150124.69
2022-10-15T09:07:54.467Z,150169.75
2022-10-15T09:09:06.986Z,150066.19
2022-10-15T09:10:34.083Z,150084.44
2022-10-15T09:11:55.034Z,150097.88
2022-10-15T09:13:04.887Z,150122.25
2022-10-15T09:14:13.787Z,150107.59
2022-10-15T09:15:23.909Z,150105.16
2022-10-15T09:16:36.016Z,150054.00
2022-10-15T09:17:41.390Z,150073.50
2022-10-15T09:18:51.511Z,150136.84
2022-10-15T09:19:58.572Z,150114.91
2022-10-15T09:21:04.305Z,150136.84
2022-10-15T09:22:15.631Z,150147.81
2022-10-15T09:23:24.529Z,150072.28
2022-10-15T09:24:30.761Z,150068.63
2022-10-15T09:25:40.942Z,150129.56
2022-10-15T09:26:50.836Z,150157.56
2022-10-15T09:27:53.986Z,150112.47
2022-10-15T09:29:20.749Z,150224.63
2022-10-15T09:30:29.093Z,150222.22
2022-10-15T09:31:46.031Z,150439.19
2022-10-15T09:33:17.356Z,150605.09
2022-10-15T09:34:30.408Z,150794.22
2022-10-15T09:35:47.494Z,150756.41
2022-10-15T09:36:55.545Z,151152.00
2022-10-15T09:38:23.370Z,151456.25
2022-10-15T09:40:03.006Z,151384.13
2022-10-15T09:41:17.023Z,151582.19
2022-10-15T09:42:26.305Z,151666.56
2022-10-15T09:43:35.954Z,151660.41
2022-10-15T09:44:44.211Z,151831.69
2022-10-15T09:45:48.029Z,151727.69
2022-10-15T09:46:52.107Z,151851.22
2022-10-15T09:48:01.270Z,151983.38
2022-10-15T09:49:13.020Z,152045.81
2022-10-15T09:50:15.787Z,151692.19
2022-10-15T09:51:42.427Z,151907.53
2022-10-15T09:52:54.315Z,152049.47
2022-10-15T09:54:03.142Z,152277.16
2022-10-15T09:55:28.110Z,152261.28
2022-10-15T09:56:39.778Z,152331.09
2022-10-15T09:57:47.300Z,152387.38
2022-10-15T09:58:55.803Z,152015.19
2022-10-15T10:00:04.011Z,152073.97
2022-10-15T10:01:22.781Z,152137.59
2022-10-15T10:02:26.714Z,152171.91
2022-10-15T10:03:33.071Z,152113.13
2022-10-15T10:04:38.854Z,152143.72
2022-10-15T10:05:43.981Z,152044.59
2022-10-15T10:06:49.222Z,152006.63
2022-10-15T10:08:09.650Z,152152.25
2022-10-15T10:09:21.353Z,152184.13
2022-10-15T10:10:28.185Z,152061.75
2022-10-15T10:12:07.324Z,152140.03
2022-10-15T10:13:25.243Z,152037.25
2022-10-15T10:14:39.305Z,152097.22
2022-10-15T10:15:45.470Z,152214.72
2022-10-15T10:17:12.997Z,152050.69
2022-10-15T10:18:28.736Z,152051.94
2022-10-15T10:19:32.543Z,152225.72
2022-10-15T10:20:52.148Z,152245.31
2022-10-15T10:22:26.438Z,152227.00
2022-10-15T10:23:35.664Z,152007.84
2022-10-15T10:24:38.409Z,152027.44
2022-10-15T10:25:44.853Z,151862.22
2022-10-15T10:26:48.603Z,151737.53
2022-10-15T10:27:52.196Z,151797.41
2022-10-15T10:29:05.069Z,151770.53
2022-10-15T10:30:19.264Z,151655.53
2022-10-15T10:31:43.962Z,151500.22
2022-10-15T10:33:00.897Z,151276.63
2022-10-15T10:34:04.282Z,151348.69
2022-10-15T10:35:20.978Z,151329.13
2022-10-15T10:36:34.399Z,151499.00
2022-10-15T10:37:43.399Z,151296.16
2022-10-15T10:39:15.022Z,151323.03
2022-10-15T10:40:36.210Z,151281.50
2022-10-15T10:41:56.441Z,151338.94
2022-10-15T10:43:17.657Z,151216.72
2022-10-15T10:44:33.408Z,151044.50
2022-10-15T10:45:36.660Z,150944.41
2022-10-15T10:46:39.895Z,150920.00
2022-10-15T10:47:43.094Z,150851.59
2022-10-15T10:48:52.839Z,150824.75
2022-10-15T10:49:57.904Z,150824.75
2022-10-15T10:51:16.679Z,150555.06
2022-10-15T10:52:33.435Z,150607.50
2022-10-15T10:53:48.145Z,150624.63
2022-10-15T10:55:05.195Z,150700.22
2022-10-15T10:56:08.531Z,150702.66
2022-10-15T10:57:14.252Z,150605.09
2022-10-15T10:58:26.295Z,150548.97
2022-10-15T10:59:53.804Z,150466.03
2022-10-15T11:00:57.721Z,150368.44
2022-10-15T11:02:00.215Z,150319.72
2022-10-15T11:03:02.579Z,150258.75
2022-10-15T11:05:12.271Z,150130.75
2022-10-15T11:06:51.073Z,150309.91
2022-10-15T11:08:06.230Z,150205.13
2022-10-15T11:09:23.086Z,150380.66
2022-10-15T11:10:41.370Z,150424.59
2022-10-15T11:11:49.507Z,150485.56
2022-10-15T11:13:31.553Z,150388.00
2022-10-15T11:15:12.311Z,150227.06
2022-10-15T11:16:25.119Z,150306.28
2022-10-15T11:17:44.958Z,150358.72
2022-10-15T11:18:58.971Z,150334.31
2022-10-15T11:20:38.970Z,150101.53
2022-10-15T11:22:04.843Z,150057.69
2022-10-15T11:23:26.553Z,150151.44
2022-10-15T11:24:49.164Z,150138.06
2022-10-15T11:26:09.722Z,150212.44
2022-10-15T11:27:30.386Z,150158.78
2022-10-15T11:28:50.936Z,150227.06
2022-10-15T11:30:01.293Z,150131.97
2022-10-15T11:31:25.232Z,150253.91
2022-10-15T11:33:06.079Z,150175.81
2022-10-15T11:34:18.378Z,150073.50
2022-10-15T11:35:48.299Z,150080.78
2022-10-15T11:36:48.866Z,150054.00
2022-10-15T11:38:03.000Z,150116.13
2022-10-15T11:39:20.073Z,150135.63
2022-10-15T11:40:37.301Z,150174.63
2022-10-15T11:41:56.778Z,150222.22
2022-10-15T11:43:28.533Z,150177.03
2022-10-15T11:44:45.563Z,150114.91
2022-10-15T11:46:09.369Z,150189.31
2022-10-15T11:47:27.301Z,150196.59
2022-10-15T11:48:52.283Z,150244.13
2022-10-15T11:50:11.470Z,150224.63
2022-10-15T11:51:22.810Z,150184.34
2022-10-15T11:52:34.295Z,150127.13
2022-10-15T11:53:36.443Z,150012.59
2022-10-15T11:55:16.246Z,150172.19
2022-10-15T11:56:26.784Z,150147.81
2022-10-15T11:57:32.638Z,150160.00
2022-10-15T11:58:46.161Z,150212.44
2022-10-15T11:59:56.933Z,150227.06
2022-10-15T12:01:01.728Z,150323.34
2022-10-15T12:02:13.884Z,150417.28
2022-10-15T12:03:29.619Z,150453.84
2022-10-15T12:04:40.761Z,150556.28
2022-10-15T12:05:56.949Z,150619.75
2022-10-15T12:07:03.723Z,150546.47
2022-10-15T12:08:10.650Z,150599.00
2022-10-15T12:09:20.407Z,150649.03
2022-10-15T12:10:45.956Z,150830.84
2022-10-15T12:12:18.396Z,151061.59
2022-10-15T12:13:33.992Z,151147.13
2022-10-15T12:14:45.842Z,151084.78
2022-10-15T12:16:03.255Z,151112.94
2022-10-15T12:17:25.896Z,151083.56
2022-10-15T12:18:40.913Z,151194.72
2022-10-15T12:19:54.387Z,151171.50
2022-10-15T12:20:58.551Z,151237.47
2022-10-15T12:22:10.811Z,151359.69
2022-10-15T12:23:39.208Z,151545.50
2022-10-15T12:24:44.674Z,151631.06
2022-10-15T12:25:47.015Z,151445.28
2022-10-15T12:26:49.186Z,151488.03
2022-10-15T12:28:00.683Z,151507.59
2022-10-15T12:29:06.715Z,151408.56
2022-10-15T12:30:09.038Z,151330.34
2022-10-15T12:31:11.658Z,151024.97
2022-10-15T12:32:27.205Z,151046.94
2022-10-15T12:33:34.231Z,150727.09
2022-10-15T12:34:43.839Z,150768.59
2022-10-15T12:35:54.918Z,150656.34
2022-10-15T12:37:15.634Z,150644.09
2022-10-15T12:38:41.481Z,150618.53
2022-10-15T12:39:52.557Z,150579.47
2022-10-15T12:41:00.018Z,150539.19
2022-10-15T12:42:03.527Z,150453.84
2022-10-15T12:43:16.210Z,150519.69
2022-10-15T12:44:27.795Z,150486.78
2022-10-15T12:45:40.223Z,150553.84
2022-10-15T12:46:43.133Z,150494.06
2022-10-15T12:48:03.680Z,150505.03
2022-10-15T12:49:27.202Z,150556.28
2022-10-15T12:50:32.165Z,150490.41
2022-10-15T12:51:35.661Z,150484.34
2022-10-15T12:52:52.745Z,150567.28
2022-10-15T12:53:57.747Z,150448.97
2022-10-15T12:55:31.981Z,150502.59
2022-10-15T12:56:41.706Z,150509.91
2022-10-15T12:57:43.841Z,150400.19
2022-10-15T12:58:53.220Z,150497.72
2022-10-15T12:59:58.248Z,150457.50
2022-10-15T13:01:13.985Z,150505.03
2022-10-15T13:02:47.432Z,150570.94
2022-10-15T13:03:51.504Z,150514.81